Terminal Aerodrome Forecast
Issued by NWS

Current Version | Previous Version | Text Only | Print | Product List | Glossary On
Versions: 1 2 3 4 5 6 7 8 9 10 11 12 13 14 15
000
FTUS46 KMTR 181720
TAFSNS
TAF
KSNS 181720Z 1818/1918 11008KT P6SM SKC
     FM182100 28007KT P6SM SKC
     FM190300 VRB02KT P6SM SKC
     FM190900 11004KT P6SM SKC
     FM191600 11007KT P6SM SKC=

USA.gov is the U.S. government's official web portal to all federal, state and local government web resources and services.